sensor_id;sensor_type;location;lat;lon;timestamp;pressure;altitude;pressure_sealevel;temperature;humidity
44934;BME280;30667;43.614;1.442;2022-12-07T00:00:28;99995.22;;;8.14;100.00
44934;BME280;30667;43.614;1.442;2022-12-07T00:02:53;99986.56;;;8.12;100.00
44934;BME280;30667;43.614;1.442;2022-12-07T00:05:18;99979.84;;;8.09;100.00
44934;BME280;30667;43.614;1.442;2022-12-07T00:07:44;99979.31;;;8.12;100.00
44934;BME280;30667;43.614;1.442;2022-12-07T00:10:09;99977.69;;;8.11;100.00
44934;BME280;30667;43.614;1.442;2022-12-07T00:12:34;99974.47;;;8.09;100.00
44934;BME280;30667;43.614;1.442;2022-12-07T00:15:00;99969.06;;;8.09;100.00
44934;BME280;30667;43.614;1.442;2022-12-07T00:17:25;99967.72;;;8.12;100.00
44934;BME280;30667;43.614;1.442;2022-12-07T00:19:51;99965.84;;;8.12;100.00
44934;BME280;30667;43.614;1.442;2022-12-07T00:22:16;99966.91;;;8.11;100.00
44934;BME280;30667;43.614;1.442;2022-12-07T00:24:41;99966.09;;;8.11;100.00
44934;BME280;30667;43.614;1.442;2022-12-07T00:27:07;99960.41;;;8.07;100.00
44934;BME280;30667;43.614;1.442;2022-12-07T00:29:32;99949.38;;;8.09;100.00
44934;BME280;30667;43.614;1.442;2022-12-07T00:31:57;99959.34;;;8.08;100.00
44934;BME280;30667;43.614;1.442;2022-12-07T00:34:23;99955.84;;;8.08;100.00
44934;BME280;30667;43.614;1.442;2022-12-07T00:36:49;99962.31;;;8.07;100.00
44934;BME280;30667;43.614;1.442;2022-12-07T00:39:14;99960.13;;;8.04;100.00
44934;BME280;30667;43.614;1.442;2022-12-07T00:41:40;99955.56;;;8.04;100.00
44934;BME280;30667;43.614;1.442;2022-12-07T00:44:06;99958.53;;;8.03;100.00
44934;BME280;30667;43.614;1.442;2022-12-07T00:46:31;99956.91;;;8.07;100.00
44934;BME280;30667;43.614;1.442;2022-12-07T00:48:56;99946.94;;;8.02;100.00
44934;BME280;30667;43.614;1.442;2022-12-07T00:51:24;99954.22;;;8.07;100.00
44934;BME280;30667;43.614;1.442;2022-12-07T00:53:50;99951.00;;;8.05;100.00
44934;BME280;30667;43.614;1.442;2022-12-07T00:56:21;99934.28;;;8.03;100.00
44934;BME280;30667;43.614;1.442;2022-12-07T00:58:52;99939.66;;;8.03;100.00
44934;BME280;30667;43.614;1.442;2022-12-07T01:01:18;99951.19;;;7.93;100.00
44934;BME280;30667;43.614;1.442;2022-12-07T01:03:44;99945.28;;;7.96;100.00
44934;BME280;30667;43.614;1.442;2022-12-07T01:06:14;99946.38;;;8.00;100.00
44934;BME280;30667;43.614;1.442;2022-12-07T01:08:40;99939.34;;;7.99;100.00
44934;BME280;30667;43.614;1.442;2022-12-07T01:11:07;99938.81;;;7.97;100.00
44934;BME280;30667;43.614;1.442;2022-12-07T01:13:34;99939.63;;;7.97;100.00
44934;BME280;30667;43.614;1.442;2022-12-07T01:16:02;99933.16;;;7.93;100.00
44934;BME280;30667;43.614;1.442;2022-12-07T01:18:30;99925.06;;;7.93;100.00
44934;BME280;30667;43.614;1.442;2022-12-07T01:23:24;99920.22;;;7.95;100.00
44934;BME280;30667;43.614;1.442;2022-12-07T01:26:00;99931.53;;;7.97;100.00
44934;BME280;30667;43.614;1.442;2022-12-07T01:28:27;99920.22;;;7.90;100.00
44934;BME280;30667;43.614;1.442;2022-12-07T01:30:57;99921.81;;;7.91;100.00
44934;BME280;30667;43.614;1.442;2022-12-07T01:33:23;99927.75;;;7.93;100.00
44934;BME280;30667;43.614;1.442;2022-12-07T01:35:49;99926.41;;;7.91;100.00
44934;BME280;30667;43.614;1.442;2022-12-07T01:38:14;99932.06;;;7.94;100.00
44934;BME280;30667;43.614;1.442;2022-12-07T01:40:39;99937.97;;;7.91;100.00
44934;BME280;30667;43.614;1.442;2022-12-07T01:43:16;99944.44;;;7.90;100.00
44934;BME280;30667;43.614;1.442;2022-12-07T01:45:42;99941.50;;;7.92;100.00
44934;BME280;30667;43.614;1.442;2022-12-07T01:48:09;99943.41;;;7.96;100.00
44934;BME280;30667;43.614;1.442;2022-12-07T01:50:37;99946.88;;;7.92;100.00
44934;BME280;30667;43.614;1.442;2022-12-07T01:53:05;99940.66;;;7.91;100.00
44934;BME280;30667;43.614;1.442;2022-12-07T01:55:32;99941.75;;;7.85;100.00
44934;BME280;30667;43.614;1.442;2022-12-07T01:57:59;99953.56;;;7.84;100.00
44934;BME280;30667;43.614;1.442;2022-12-07T02:00:24;99952.25;;;7.87;100.00
44934;BME280;30667;43.614;1.442;2022-12-07T02:03:01;99953.59;;;7.89;100.00
44934;BME280;30667;43.614;1.442;2022-12-07T02:05:29;99941.78;;;7.95;100.00
44934;BME280;30667;43.614;1.442;2022-12-07T02:07:55;99947.16;;;7.95;100.00
44934;BME280;30667;43.614;1.442;2022-12-07T02:10:27;99946.09;;;7.96;100.00
44934;BME280;30667;43.614;1.442;2022-12-07T02:13:01;99940.13;;;7.89;100.00
44934;BME280;30667;43.614;1.442;2022-12-07T02:15:59;99938.25;;;7.90;100.00
44934;BME280;30667;43.614;1.442;2022-12-07T02:21:45;99945.50;;;7.89;100.00
44934;BME280;30667;43.614;1.442;2022-12-07T02:29:50;99942.03;;;7.94;100.00
44934;BME280;30667;43.614;1.442;2022-12-07T02:32:27;99937.44;;;7.94;100.00
44934;BME280;30667;43.614;1.442;2022-12-07T02:35:11;99936.09;;;7.92;100.00
44934;BME280;30667;43.614;1.442;2022-12-07T02:37:53;99940.66;;;7.91;100.00
44934;BME280;30667;43.614;1.442;2022-12-07T02:40:52;99928.81;;;7.92;100.00
44934;BME280;30667;43.614;1.442;2022-12-07T02:43:31;99932.31;;;7.93;100.00
44934;BME280;30667;43.614;1.442;2022-12-07T02:46:07;99935.31;;;7.96;100.00
44934;BME280;30667;43.614;1.442;2022-12-07T02:48:34;99935.03;;;7.93;100.00
44934;BME280;30667;43.614;1.442;2022-12-07T02:51:00;99932.91;;;7.95;100.00
44934;BME280;30667;43.614;1.442;2022-12-07T02:53:38;99926.13;;;7.92;100.00
44934;BME280;30667;43.614;1.442;2022-12-07T02:56:17;99925.63;;;7.95;100.00
44934;BME280;30667;43.614;1.442;2022-12-07T03:01:28;99928.84;;;7.97;100.00
44934;BME280;30667;43.614;1.442;2022-12-07T03:07:13;99927.53;;;8.00;100.00
44934;BME280;30667;43.614;1.442;2022-12-07T03:09:53;99925.06;;;7.93;100.00
44934;BME280;30667;43.614;1.442;2022-12-07T03:16:12;99928.84;;;7.97;100.00
44934;BME280;30667;43.614;1.442;2022-12-07T03:18:19;99927.25;;;7.96;100.00
44934;BME280;30667;43.614;1.442;2022-12-07T03:20:49;99933.44;;;7.97;100.00
44934;BME280;30667;43.614;1.442;2022-12-07T03:23:18;99929.94;;;7.96;100.00
44934;BME280;30667;43.614;1.442;2022-12-07T03:25:48;99936.13;;;7.97;100.00
44934;BME280;30667;43.614;1.442;2022-12-07T03:28:17;99939.63;;;7.97;100.00
44934;BME280;30667;43.614;1.442;2022-12-07T03:30:52;99937.19;;;7.96;100.00
44934;BME280;30667;43.614;1.442;2022-12-07T03:33:53;99936.66;;;7.94;100.00
44934;BME280;30667;43.614;1.442;2022-12-07T03:36:26;99939.59;;;7.92;100.00
44934;BME280;30667;43.614;1.442;2022-12-07T03:39:00;99938.28;;;7.95;100.00
44934;BME280;30667;43.614;1.442;2022-12-07T03:41:32;99929.09;;;7.91;100.00
44934;BME280;30667;43.614;1.442;2022-12-07T03:43:59;99930.72;;;7.92;100.00
44934;BME280;30667;43.614;1.442;2022-12-07T03:49:09;99927.19;;;7.91;100.00
44934;BME280;30667;43.614;1.442;2022-12-07T03:51:45;99918.06;;;7.92;100.00
44934;BME280;30667;43.614;1.442;2022-12-07T03:54:29;99916.16;;;7.93;100.00
44934;BME280;30667;43.614;1.442;2022-12-07T03:56:58;99913.47;;;7.93;100.00
44934;BME280;30667;43.614;1.442;2022-12-07T03:59:24;99913.72;;;7.91;100.00
44934;BME280;30667;43.614;1.442;2022-12-07T04:01:55;99908.63;;;7.90;100.00
44934;BME280;30667;43.614;1.442;2022-12-07T04:04:23;99910.22;;;7.91;100.00
44934;BME280;30667;43.614;1.442;2022-12-07T04:06:50;99908.88;;;7.88;100.00
44934;BME280;30667;43.614;1.442;2022-12-07T04:09:16;99912.66;;;7.87;100.00
44934;BME280;30667;43.614;1.442;2022-12-07T04:11:42;99912.41;;;7.94;100.00
44934;BME280;30667;43.614;1.442;2022-12-07T04:14:07;99907.81;;;7.94;100.00
44934;BME280;30667;43.614;1.442;2022-12-07T04:16:53;99906.75;;;7.90;100.00
44934;BME280;30667;43.614;1.442;2022-12-07T04:19:24;99911.03;;;7.91;100.00
44934;BME280;30667;43.614;1.442;2022-12-07T04:21:50;99909.94;;;7.87;100.00
44934;BME280;30667;43.614;1.442;2022-12-07T04:24:16;99912.09;;;7.85;100.00
44934;BME280;30667;43.614;1.442;2022-12-07T04:26:42;99904.56;;;7.87;100.00
44934;BME280;30667;43.614;1.442;2022-12-07T04:29:09;99905.38;;;7.88;100.00
44934;BME280;30667;43.614;1.442;2022-12-07T04:31:35;99899.44;;;7.86;100.00
44934;BME280;30667;43.614;1.442;2022-12-07T04:34:00;99909.44;;;7.90;100.00
44934;BME280;30667;43.614;1.442;2022-12-07T04:36:26;99898.41;;;7.92;100.00
44934;BME280;30667;43.614;1.442;2022-12-07T04:38:53;99902.41;;;7.89;100.00
44934;BME280;30667;43.614;1.442;2022-12-07T04:41:20;99902.41;;;7.89;100.00
44934;BME280;30667;43.614;1.442;2022-12-07T04:43:55;99899.19;;;7.92;100.00
44934;BME280;30667;43.614;1.442;2022-12-07T04:46:22;99901.34;;;7.90;100.00
44934;BME280;30667;43.614;1.442;2022-12-07T04:48:48;99900.25;;;7.91;100.00
44934;BME280;30667;43.614;1.442;2022-12-07T04:51:16;99905.94;;;7.90;100.00
44934;BME280;30667;43.614;1.442;2022-12-07T04:53:43;99900.25;;;7.86;100.00
44934;BME280;30667;43.614;1.442;2022-12-07T04:56:08;99905.09;;;7.89;100.00
44934;BME280;30667;43.614;1.442;2022-12-07T04:58:34;99904.56;;;7.87;100.00
44934;BME280;30667;43.614;1.442;2022-12-07T05:00:59;99901.06;;;7.87;100.00
44934;BME280;30667;43.614;1.442;2022-12-07T05:03:24;99905.66;;;7.91;100.00
44934;BME280;30667;43.614;1.442;2022-12-07T05:05:50;99912.13;;;7.90;100.00
44934;BME280;30667;43.614;1.442;2022-12-07T05:08:15;99901.63;;;7.89;100.00
44934;BME280;30667;43.614;1.442;2022-12-07T05:10:41;99905.38;;;7.88;100.00
44934;BME280;30667;43.614;1.442;2022-12-07T05:13:06;99904.84;;;7.91;100.00
44934;BME280;30667;43.614;1.442;2022-12-07T05:15:31;99900.56;;;7.90;100.00
44934;BME280;30667;43.614;1.442;2022-12-07T05:17:57;99898.13;;;7.88;100.00
44934;BME280;30667;43.614;1.442;2022-12-07T05:20:22;99895.69;;;7.92;100.00
44934;BME280;30667;43.614;1.442;2022-12-07T05:22:48;99904.03;;;7.90;100.00
44934;BME280;30667;43.614;1.442;2022-12-07T05:25:13;99901.88;;;7.92;100.00
44934;BME280;30667;43.614;1.442;2022-12-07T05:27:39;99898.41;;;7.92;100.00
44934;BME280;30667;43.614;1.442;2022-12-07T05:30:05;99894.06;;;7.91;100.00
44934;BME280;30667;43.614;1.442;2022-12-07T05:32:30;99895.16;;;7.90;100.00
44934;BME280;30667;43.614;1.442;2022-12-07T05:34:56;99897.53;;;7.86;100.00
44934;BME280;30667;43.614;1.442;2022-12-07T05:37:21;99892.16;;;7.86;100.00
44934;BME280;30667;43.614;1.442;2022-12-07T05:39:47;99893.25;;;7.85;100.00
44934;BME280;30667;43.614;1.442;2022-12-07T05:42:12;99889.47;;;7.86;100.00
44934;BME280;30667;43.614;1.442;2022-12-07T05:44:42;99891.09;;;7.87;100.00
44934;BME280;30667;43.614;1.442;2022-12-07T05:47:09;99891.63;;;7.84;100.00
44934;BME280;30667;43.614;1.442;2022-12-07T05:49:34;99890.56;;;7.85;100.00
44934;BME280;30667;43.614;1.442;2022-12-07T05:52:00;99898.63;;;7.85;100.00
44934;BME280;30667;43.614;1.442;2022-12-07T05:54:26;99904.31;;;7.89;100.00
44934;BME280;30667;43.614;1.442;2022-12-07T05:56:51;99903.50;;;7.88;100.00
44934;BME280;30667;43.614;1.442;2022-12-07T05:59:17;99900.25;;;7.86;100.00
44934;BME280;30667;43.614;1.442;2022-12-07T06:01:55;99893.53;;;7.89;100.00
44934;BME280;30667;43.614;1.442;2022-12-07T06:04:21;99884.09;;;7.86;100.00
44934;BME280;30667;43.614;1.442;2022-12-07T06:06:47;99890.84;;;7.89;100.00
44934;BME280;30667;43.614;1.442;2022-12-07T06:09:14;99889.78;;;7.90;100.00
44934;BME280;30667;43.614;1.442;2022-12-07T06:11:40;99885.16;;;7.85;100.00
44934;BME280;30667;43.614;1.442;2022-12-07T06:14:25;99882.47;;;7.85;100.00
44934;BME280;30667;43.614;1.442;2022-12-07T06:16:50;99882.22;;;7.87;100.00
44934;BME280;30667;43.614;1.442;2022-12-07T06:19:15;99880.31;;;7.87;100.00
44934;BME280;30667;43.614;1.442;2022-12-07T06:21:41;99885.72;;;7.87;100.00
44934;BME280;30667;43.614;1.442;2022-12-07T06:24:08;99878.94;;;7.85;100.00
44934;BME280;30667;43.614;1.442;2022-12-07T06:26:34;99877.63;;;7.87;100.00
44934;BME280;30667;43.614;1.442;2022-12-07T06:28:59;99884.94;;;7.92;100.00
44934;BME280;30667;43.614;1.442;2022-12-07T06:31:24;99886.00;;;7.91;100.00
44934;BME280;30667;43.614;1.442;2022-12-07T06:33:50;99877.34;;;7.84;100.00
44934;BME280;30667;43.614;1.442;2022-12-07T06:36:16;99884.09;;;7.86;100.00
44934;BME280;30667;43.614;1.442;2022-12-07T06:38:41;99886.50;;;7.82;100.00
44934;BME280;30667;43.614;1.442;2022-12-07T06:41:08;99887.28;;;7.83;100.00
44934;BME280;30667;43.614;1.442;2022-12-07T06:43:33;99881.38;;;7.86;100.00
44934;BME280;30667;43.614;1.442;2022-12-07T06:45:59;99880.31;;;7.87;100.00
44934;BME280;30667;43.614;1.442;2022-12-07T06:48:24;99884.09;;;7.86;100.00
44934;BME280;30667;43.614;1.442;2022-12-07T06:50:50;99886.78;;;7.86;100.00
44934;BME280;30667;43.614;1.442;2022-12-07T06:53:16;99891.63;;;7.84;100.00
44934;BME280;30667;43.614;1.442;2022-12-07T06:55:42;99880.31;;;7.87;100.00
44934;BME280;30667;43.614;1.442;2022-12-07T06:58:07;99877.09;;;7.85;100.00
44934;BME280;30667;43.614;1.442;2022-12-07T07:00:33;99878.72;;;7.91;100.00
44934;BME280;30667;43.614;1.442;2022-12-07T07:03:00;99875.72;;;7.88;100.00
44934;BME280;30667;43.614;1.442;2022-12-07T07:05:25;99876.81;;;7.87;100.00
44934;BME280;30667;43.614;1.442;2022-12-07T07:07:51;99875.72;;;7.88;100.00
44934;BME280;30667;43.614;1.442;2022-12-07T07:10:17;99877.34;;;7.84;100.00
44934;BME280;30667;43.614;1.442;2022-12-07T07:12:42;99877.63;;;7.82;100.00
44934;BME280;30667;43.614;1.442;2022-12-07T07:15:08;99880.31;;;7.82;100.00
44934;BME280;30667;43.614;1.442;2022-12-07T07:17:34;99884.31;;;7.79;100.00
44934;BME280;30667;43.614;1.442;2022-12-07T07:20:00;99888.91;;;7.79;100.00
44934;BME280;30667;43.614;1.442;2022-12-07T07:22:25;99889.16;;;7.77;100.00
44934;BME280;30667;43.614;1.442;2022-12-07T07:24:51;99884.59;;;7.78;100.00
44934;BME280;30667;43.614;1.442;2022-12-07T07:27:16;99887.81;;;7.80;100.00
44934;BME280;30667;43.614;1.442;2022-12-07T07:29:41;99893.19;;;7.80;100.00
44934;BME280;30667;43.614;1.442;2022-12-07T07:32:07;99894.03;;;7.80;100.00
44934;BME280;30667;43.614;1.442;2022-12-07T07:34:33;99893.47;;;7.78;100.00
44934;BME280;30667;43.614;1.442;2022-12-07T07:36:58;99895.09;;;7.79;100.00
44934;BME280;30667;43.614;1.442;2022-12-07T07:39:24;99897.00;;;7.79;100.00
44934;BME280;30667;43.614;1.442;2022-12-07T07:41:49;99897.00;;;7.79;100.00
44934;BME280;30667;43.614;1.442;2022-12-07T07:44:14;99905.06;;;7.79;100.00
44934;BME280;30667;43.614;1.442;2022-12-07T07:46:40;99890.78;;;7.78;100.00
44934;BME280;30667;43.614;1.442;2022-12-07T07:49:05;99894.84;;;7.81;100.00
44934;BME280;30667;43.614;1.442;2022-12-07T07:51:30;99901.28;;;7.80;100.00
44934;BME280;30667;43.614;1.442;2022-12-07T07:53:56;99906.72;;;7.85;100.00
44934;BME280;30667;43.614;1.442;2022-12-07T07:56:21;99903.47;;;7.83;100.00
44934;BME280;30667;43.614;1.442;2022-12-07T07:58:47;99905.88;;;7.85;100.00
44934;BME280;30667;43.614;1.442;2022-12-07T08:01:12;99910.22;;;7.86;100.00
44934;BME280;30667;43.614;1.442;2022-12-07T08:03:38;99905.63;;;7.86;100.00
44934;BME280;30667;43.614;1.442;2022-12-07T08:06:04;99917.25;;;7.92;100.00
44934;BME280;30667;43.614;1.442;2022-12-07T08:08:30;99914.03;;;7.90;100.00
44934;BME280;30667;43.614;1.442;2022-12-07T08:10:55;99919.41;;;7.90;100.00
44934;BME280;30667;43.614;1.442;2022-12-07T08:13:21;99915.88;;;7.89;100.00
44934;BME280;30667;43.614;1.442;2022-12-07T08:15:47;99917.81;;;7.99;100.00
44934;BME280;30667;43.614;1.442;2022-12-07T08:18:14;99920.75;;;7.97;100.00
44934;BME280;30667;43.614;1.442;2022-12-07T08:20:41;99918.84;;;8.46;100.00
44934;BME280;30667;43.614;1.442;2022-12-07T08:23:07;99916.81;;;8.15;100.00
44934;BME280;30667;43.614;1.442;2022-12-07T08:25:33;99910.84;;;8.03;100.00
44934;BME280;30667;43.614;1.442;2022-12-07T08:27:58;99913.25;;;7.99;100.00
44934;BME280;30667;43.614;1.442;2022-12-07T08:30:26;99915.69;;;8.06;100.00
44934;BME280;30667;43.614;1.442;2022-12-07T08:32:51;99913.03;;;8.16;100.00
44934;BME280;30667;43.614;1.442;2022-12-07T08:35:17;99915.44;;;8.13;100.00
44934;BME280;30667;43.614;1.442;2022-12-07T08:37:42;99922.41;;;8.98;100.00
44934;BME280;30667;43.614;1.442;2022-12-07T08:40:09;99909.13;;;8.45;100.00
44934;BME280;30667;43.614;1.442;2022-12-07T08:42:35;99913.03;;;8.22;100.00
44934;BME280;30667;43.614;1.442;2022-12-07T08:45:12;99916.28;;;8.18;100.00
44934;BME280;30667;43.614;1.442;2022-12-07T08:47:42;99921.38;;;8.10;100.00
44934;BME280;30667;43.614;1.442;2022-12-07T08:50:11;99919.22;;;8.12;100.00
44934;BME280;30667;43.614;1.442;2022-12-07T08:52:37;99922.72;;;8.12;100.00
44934;BME280;30667;43.614;1.442;2022-12-07T08:55:04;99920.31;;;8.16;100.00
44934;BME280;30667;43.614;1.442;2022-12-07T08:57:32;99917.38;;;8.28;100.00
44934;BME280;30667;43.614;1.442;2022-12-07T08:59:58;99918.22;;;8.28;100.00
44934;BME280;30667;43.614;1.442;2022-12-07T09:02:24;99916.59;;;8.37;100.00
44934;BME280;30667;43.614;1.442;2022-12-07T09:04:50;99921.44;;;8.35;100.00
44934;BME280;30667;43.614;1.442;2022-12-07T09:07:15;99923.34;;;8.40;100.00
44934;BME280;30667;43.614;1.442;2022-12-07T09:09:40;99915.56;;;8.44;100.00
44934;BME280;30667;43.614;1.442;2022-12-07T09:12:07;99913.19;;;8.47;100.00
44934;BME280;30667;43.614;1.442;2022-12-07T09:14:32;99914.78;;;8.53;100.00
44934;BME280;30667;43.614;1.442;2022-12-07T09:17:12;99913.97;;;8.58;100.00
44934;BME280;30667;43.614;1.442;2022-12-07T09:19:38;99909.38;;;8.53;100.00
44934;BME280;30667;43.614;1.442;2022-12-07T09:22:04;99913.72;;;8.54;100.00
44934;BME280;30667;43.614;1.442;2022-12-07T09:24:30;99907.78;;;8.58;100.00
44934;BME280;30667;43.614;1.442;2022-12-07T09:26:56;99914.53;;;8.60;100.00
44934;BME280;30667;43.614;1.442;2022-12-07T09:29:22;99915.09;;;8.62;100.00
44934;BME280;30667;43.614;1.442;2022-12-07T09:31:47;99915.88;;;8.63;100.00
44934;BME280;30667;43.614;1.442;2022-12-07T09:34:13;99923.19;;;8.62;100.00
44934;BME280;30667;43.614;1.442;2022-12-07T09:36:39;99915.88;;;8.63;100.00
44934;BME280;30667;43.614;1.442;2022-12-07T09:39:04;99920.47;;;8.67;100.00
44934;BME280;30667;43.614;1.442;2022-12-07T09:41:31;99922.63;;;8.65;100.00
44934;BME280;30667;43.614;1.442;2022-12-07T09:44:06;99912.91;;;8.69;100.00
44934;BME280;30667;43.614;1.442;2022-12-07T09:46:36;99907.81;;;8.78;100.00
44934;BME280;30667;43.614;1.442;2022-12-07T09:49:02;99925.63;;;8.79;100.00
44934;BME280;30667;43.614;1.442;2022-12-07T09:51:28;99926.16;;;8.81;100.00
44934;BME280;30667;43.614;1.442;2022-12-07T09:53:56;99929.66;;;8.87;100.00
44934;BME280;30667;43.614;1.442;2022-12-07T09:56:23;99924.84;;;8.89;100.00
44934;BME280;30667;43.614;1.442;2022-12-07T09:58:49;99922.94;;;9.00;100.00
44934;BME280;30667;43.614;1.442;2022-12-07T10:01:20;99918.63;;;8.99;100.00
44934;BME280;30667;43.614;1.442;2022-12-07T10:03:52;99918.09;;;8.97;100.00
44934;BME280;30667;43.614;1.442;2022-12-07T10:06:18;99924.81;;;9.04;100.00
44934;BME280;30667;43.614;1.442;2022-12-07T10:08:43;99924.56;;;9.06;100.00
44934;BME280;30667;43.614;1.442;2022-12-07T10:11:10;99925.38;;;9.17;100.00
44934;BME280;30667;43.614;1.442;2022-12-07T10:13:39;99923.75;;;9.16;100.00
44934;BME280;30667;43.614;1.442;2022-12-07T10:16:06;99922.13;;;9.20;100.00
44934;BME280;30667;43.614;1.442;2022-12-07T10:18:37;99925.66;;;9.15;100.00
44934;BME280;30667;43.614;1.442;2022-12-07T10:23:36;99915.66;;;9.31;100.00
44934;BME280;30667;43.614;1.442;2022-12-07T10:26:29;99909.72;;;9.29;100.00
44934;BME280;30667;43.614;1.442;2022-12-07T10:28:58;99899.44;;;9.31;100.00
44934;BME280;30667;43.614;1.442;2022-12-07T10:31:24;99895.13;;;9.40;100.00
44934;BME280;30667;43.614;1.442;2022-12-07T10:34:00;99894.31;;;9.40;100.00
44934;BME280;30667;43.614;1.442;2022-12-07T10:36:35;99899.97;;;9.43;100.00
44934;BME280;30667;43.614;1.442;2022-12-07T10:39:11;99890.78;;;9.39;100.00
44934;BME280;30667;43.614;1.442;2022-12-07T10:41:57;99882.16;;;9.37;100.00
44934;BME280;30667;43.614;1.442;2022-12-07T10:44:28;99882.69;;;9.50;100.00
44934;BME280;30667;43.614;1.442;2022-12-07T10:53:18;99874.28;;;9.56;100.00
44934;BME280;30667;43.614;1.442;2022-12-07T10:59:04;99860.75;;;9.61;100.00
44934;BME280;30667;43.614;1.442;2022-12-07T11:13:10;99849.03;;;9.92;99.99
44934;BME280;30667;43.614;1.442;2022-12-07T11:27:47;99829.56;;;9.95;100.00
44934;BME280;30667;43.614;1.442;2022-12-07T11:30:19;99822.78;;;10.03;97.86
44934;BME280;30667;43.614;1.442;2022-12-07T11:33:04;99824.41;;;9.98;100.00
44934;BME280;30667;43.614;1.442;2022-12-07T11:38:16;99815.94;;;10.15;100.00
44934;BME280;30667;43.614;1.442;2022-12-07T11:40:48;99813.50;;;10.14;98.25
44934;BME280;30667;43.614;1.442;2022-12-07T11:43:23;99813.25;;;10.15;98.05
44934;BME280;30667;43.614;1.442;2022-12-07T11:46:06;99808.38;;;10.12;93.85
44934;BME280;30667;43.614;1.442;2022-12-07T11:48:38;99806.47;;;10.18;91.34
44934;BME280;30667;43.614;1.442;2022-12-07T11:51:09;99802.66;;;10.19;90.63
44934;BME280;30667;43.614;1.442;2022-12-07T11:53:49;99796.97;;;10.21;90.77
44934;BME280;30667;43.614;1.442;2022-12-07T11:56:21;99792.88;;;10.33;89.68
44934;BME280;30667;43.614;1.442;2022-12-07T12:03:51;99783.38;;;10.36;81.01
44934;BME280;30667;43.614;1.442;2022-12-07T12:06:17;99785.25;;;10.41;82.80
44934;BME280;30667;43.614;1.442;2022-12-07T12:31:12;99748.31;;;10.60;93.44
44934;BME280;30667;43.614;1.442;2022-12-07T12:33:44;99745.69;;;10.79;91.75
44934;BME280;30667;43.614;1.442;2022-12-07T12:39:11;99743.03;;;10.74;93.06
44934;BME280;30667;43.614;1.442;2022-12-07T12:47:00;99748.69;;;10.78;91.90
44934;BME280;30667;43.614;1.442;2022-12-07T12:49:36;99742.94;;;10.84;90.97
44934;BME280;30667;43.614;1.442;2022-12-07T12:57:30;99733.16;;;10.88;90.79
44934;BME280;30667;43.614;1.442;2022-12-07T12:59:58;99725.19;;;10.97;91.69
44934;BME280;30667;43.614;1.442;2022-12-07T13:02:36;99723.91;;;10.95;92.14
44934;BME280;30667;43.614;1.442;2022-12-07T13:10:39;99718.50;;;10.89;93.34
44934;BME280;30667;43.614;1.442;2022-12-07T13:15:42;99709.66;;;10.84;91.42
44934;BME280;30667;43.614;1.442;2022-12-07T13:20:59;99701.41;;;10.94;91.78
44934;BME280;30667;43.614;1.442;2022-12-07T13:23:38;99697.91;;;10.94;91.28
44934;BME280;30667;43.614;1.442;2022-12-07T13:28:40;99698.13;;;10.97;87.67
44934;BME280;30667;43.614;1.442;2022-12-07T13:31:35;99694.63;;;10.97;86.77
44934;BME280;30667;43.614;1.442;2022-12-07T13:34:03;99694.41;;;10.93;88.26
44934;BME280;30667;43.614;1.442;2022-12-07T13:36:38;99690.13;;;10.87;89.61
44934;BME280;30667;43.614;1.442;2022-12-07T13:39:19;99683.50;;;10.98;89.96
44934;BME280;30667;43.614;1.442;2022-12-07T13:41:49;99681.88;;;10.97;90.07
44934;BME280;30667;43.614;1.442;2022-12-07T13:44:17;99682.72;;;10.98;88.35
44934;BME280;30667;43.614;1.442;2022-12-07T13:46:54;99684.03;;;11.00;89.34
44934;BME280;30667;43.614;1.442;2022-12-07T13:49:27;99678.59;;;11.00;91.49
44934;BME280;30667;43.614;1.442;2022-12-07T13:51:54;99670.72;;;11.04;91.23
44934;BME280;30667;43.614;1.442;2022-12-07T13:54:21;99683.09;;;11.10;90.64
44934;BME280;30667;43.614;1.442;2022-12-07T13:56:53;99675.78;;;11.11;90.35
44934;BME280;30667;43.614;1.442;2022-12-07T13:59:23;99665.28;;;11.04;92.14
44934;BME280;30667;43.614;1.442;2022-12-07T14:01:51;99661.38;;;11.15;92.66
44934;BME280;30667;43.614;1.442;2022-12-07T14:04:37;99660.56;;;11.15;92.70
44934;BME280;30667;43.614;1.442;2022-12-07T14:10:31;99658.16;;;11.13;93.54
44934;BME280;30667;43.614;1.442;2022-12-07T14:12:58;99657.63;;;11.11;94.36
44934;BME280;30667;43.614;1.442;2022-12-07T14:15:28;99656.31;;;11.08;95.31
44934;BME280;30667;43.614;1.442;2022-12-07T14:17:55;99656.84;;;11.11;96.29
44934;BME280;30667;43.614;1.442;2022-12-07T14:20:38;99663.91;;;11.06;97.23
44934;BME280;30667;43.614;1.442;2022-12-07T14:23:05;99659.88;;;11.04;98.65
44934;BME280;30667;43.614;1.442;2022-12-07T14:25:48;99658.88;;;11.00;100.00
44934;BME280;30667;43.614;1.442;2022-12-07T14:28:27;99654.75;;;11.02;98.62
44934;BME280;30667;43.614;1.442;2022-12-07T14:30:52;99654.53;;;10.99;100.00
44934;BME280;30667;43.614;1.442;2022-12-07T14:33:18;99662.59;;;11.04;100.00
44934;BME280;30667;43.614;1.442;2022-12-07T14:35:44;99658.06;;;10.99;100.00
44934;BME280;30667;43.614;1.442;2022-12-07T14:38:09;99650.22;;;10.98;100.00
44934;BME280;30667;43.614;1.442;2022-12-07T14:40:38;99647.81;;;10.96;100.00
44934;BME280;30667;43.614;1.442;2022-12-07T14:43:14;99646.13;;;11.00;100.00
44934;BME280;30667;43.614;1.442;2022-12-07T14:45:40;99652.00;;;11.07;100.00
44934;BME280;30667;43.614;1.442;2022-12-07T14:48:07;99650.47;;;11.01;100.00
44934;BME280;30667;43.614;1.442;2022-12-07T14:50:39;99644.75;;;11.03;100.00
44934;BME280;30667;43.614;1.442;2022-12-07T14:53:17;99647.69;;;11.06;100.00
44934;BME280;30667;43.614;1.442;2022-12-07T14:55:43;99642.25;;;11.06;100.00
44934;BME280;30667;43.614;1.442;2022-12-07T14:58:18;99640.63;;;11.05;100.00
44934;BME280;30667;43.614;1.442;2022-12-07T15:00:44;99645.56;;;11.03;100.00
44934;BME280;30667;43.614;1.442;2022-12-07T15:03:09;99644.22;;;11.01;100.00
44934;BME280;30667;43.614;1.442;2022-12-07T15:05:36;99639.97;;;10.95;100.00
44934;BME280;30667;43.614;1.442;2022-12-07T15:08:02;99642.69;;;10.95;100.00